Doerun, GA

8:39 PM EDT on July 22, 2014 (GMT -0400)
City of Moultrie Service Center (KGAMOULT2) Elev 299 ft | 31.19 °N, 83.79 °W | Change Station

Current weather conditions updated 8 minutes ago

Mostly Cloudy
Mostly Cloudy
82.0 °F
Feels Like 88 °F
N
0.0
Wind Variable Wind from East
Gusts 1.0 mph

Tomorrow is forecast to be Warmer than today.

Today
High -- | Low -- °F
--% Chance of Precip.
Yesterday
High -- | Low -- °F
Precip. -- in
6:46 AM 8:37 PM
Waning Crescent, 14% visible
Pressure 30.05 in
Visibility 10.0 miles
Clouds Clear
Heat Index 88 °F
Dew Point 75 °F
Humidity 78%
Rainfall 0.01 in
Snow Depth Not available.
UV 0 out of 12
Pollen 2.80 out of 12
Air Quality Not available.
Flu Activity Not available.
METAR KMGR 230015Z AUTO 00000KT 10SM CLR 28/23 A3005 RMK AO2

More Conditions Fewer Conditions

Pressure 30.05 in
Visibility 10.0 miles
Clouds Clear
Heat Index 88 °F
Dew Point 75 °F
Humidity 78%
Rainfall 0.01 in
Snow Depth Not available.
UV 0 out of 12
Pollen 2.80 out of 12
Air Quality Not available.
Flu Activity Not available.
METAR KMGR 230015Z AUTO 00000KT 10SM CLR 28/23 A3005 RMK AO2

More Conditions Fewer Conditions

10-Day Weather Forecast

Almanac

Astronomy

Jul. 22, 2014 Rise Set
Actual Time 6:46 AM EDT 8:37 PM EDT
Civil Twilight 6:19 AM EDT 9:04 PM EDT
Nautical Twilight 5:46 AM EDT 9:37 PM EDT
Astronomical Twilight 5:11 AM EDT 10:11 PM EDT
Moon 3:15 AM EDT (7/22) 5:16 PM EDT (7/22)
Length of Visible Light 14h 45m
Length of Day
13h 51m
Tomorrow will be 1m 11s shorter.
Waning Crescent, 14% of the Moon is Illuminated
Today
Waning Crescent
Jul 26
New
Aug 3
First Quarter
Aug 10
Full
Aug 17
Last Quarter

Today's Extremes

State Highs State Lows

Community

WunderPhotos

Upload Photos

1,736,413 photos uploaded!

Nearby

Snow Depth

Station Depth Elevation
No new snow has been reported.

Earthquake Activity

City Distance Mag. Time & Date
No recent earthquake activity has been reported nearby.
Minimum magnitude displayed is 2.5.

Coastal Water Temperatures

Place Temperature
No Stations Reporting

Nearby Weather Stations

Station Location Temp. Heat Index Dew Point Humidity Wind Precip. Elev Updated Type
City of Moultrie Service Center, Moultrie, GA 82.0 °F 88 °F 75 °F 78% East  at  0.0 mph 0.00 in / hr 299 ft 8:30 PM EDT Normal
Worth County High School, Sylvester, GA 82.3 °F 87 °F 72 °F 72% WNW  at  0.0 mph 0.00 in / hr 436 ft 8:30 PM EDT Normal
RAWS CAMILLA GA, Camilla, GA 85 °F 89 °F 69 °F 59% NNW  at  2 mph 0.00 in / hr 160 ft 8:04 PM EDT MADIS

Show More Stations Show Fewer Stations